Time;durP1;ratioP1;P1;durP2;ratioP2;P2;SDS_P1;SDS_P2;PMS_P1;PMS_P2;Temp;Humidity;BMP_temperature;BMP_pressure;BME280_temperature;BME280_humidity;BME280_pressure;Samples;Min_cycle;Max_cycle;Signal;HPM_P1;HPM_P2
2021/08/13 00:02:11;;;;;;;6.55;3.25;;;;;;;;;;2616264;54;20118;-59
2021/08/13 00:04:37;;;;;;;5.97;3.38;;;;;;;;;;2615934;54;20029;-59
2021/08/13 00:07:04;;;;;;;6.65;3.63;;;;;;;;;;2616195;54;20114;-59
2021/08/13 00:09:29;;;;;;;6.07;2.85;;;;;;;;;;2616262;54;20477;-59
2021/08/13 00:11:54;;;;;;;5.25;2.70;;;;;;;;;;2616280;54;20030;-59
2021/08/13 00:14:20;;;;;;;4.65;2.75;;;;;;;;;;2616237;54;20053;-59
2021/08/13 00:16:45;;;;;;;3.65;3.00;;;;;;;;;;2616240;54;20728;-58
2021/08/13 00:19:11;;;;;;;3.85;2.47;;;;;;;;;;2616030;54;20452;-59
2021/08/13 00:21:36;;;;;;;3.83;2.38;;;;;;;;;;2616229;54;20022;-59
2021/08/13 00:24:02;;;;;;;3.95;2.85;;;;;;;;;;2616510;54;20038;-59
2021/08/13 00:26:28;;;;;;;5.15;3.40;;;;;;;;;;2616134;54;20033;-58
2021/08/13 00:28:54;;;;;;;5.60;3.75;;;;;;;;;;2616299;54;20586;-59
2021/08/13 00:31:20;;;;;;;3.97;2.55;;;;;;;;;;2616428;54;20046;-59
2021/08/13 00:33:45;;;;;;;3.53;1.85;;;;;;;;;;2615770;54;20014;-59
2021/08/13 00:36:10;;;;;;;9.00;2.47;;;;;;;;;;2616680;39;20153;-59
2021/08/13 00:38:36;;;;;;;4.57;2.80;;;;;;;;;;2616175;54;20022;-59
2021/08/13 00:41:03;;;;;;;3.85;2.08;;;;;;;;;;2616104;54;20025;-58
2021/08/13 00:43:29;;;;;;;5.47;2.63;;;;;;;;;;2616266;54;20110;-59
2021/08/13 00:45:54;;;;;;;3.60;2.50;;;;;;;;;;2616256;54;20018;-58
2021/08/13 00:48:19;;;;;;;3.03;2.20;;;;;;;;;;2616390;54;20018;-58
2021/08/13 00:50:45;;;;;;;4.55;3.00;;;;;;;;;;2616063;54;20469;-59
2021/08/13 00:53:11;;;;;;;5.35;3.58;;;;;;;;;;2616185;54;20029;-59
2021/08/13 00:55:37;;;;;;;3.47;2.42;;;;;;;;;;2616095;54;20029;-58
2021/08/13 00:58:03;;;;;;;3.70;2.05;;;;;;;;;;2615882;54;20022;-58
2021/08/13 01:00:30;;;;;;;4.03;2.45;;;;;;;;;;2616827;39;20419;-58
2021/08/13 01:02:56;;;;;;;8.10;3.08;;;;;;;;;;2616356;54;20503;-58
2021/08/13 01:05:21;;;;;;;2.90;2.00;;;;;;;;;;2615907;54;20026;-58
2021/08/13 01:07:46;;;;;;;3.08;2.10;;;;;;;;;;2616152;54;20065;-58
2021/08/13 01:10:13;;;;;;;4.47;2.65;;;;;;;;;;2616065;54;20022;-58
2021/08/13 01:12:41;;;;;;;5.13;3.00;;;;;;;;;;2616237;54;20045;-58
2021/08/13 01:15:09;;;;;;;5.15;3.25;;;;;;;;;;2615909;54;20031;-59
2021/08/13 01:17:58;;;;;;;12.45;3.63;;;;;;;;;;2615823;54;20053;-59
2021/08/13 01:20:43;;;;;;;3.05;2.20;;;;;;;;;;2616576;39;20361;-59
2021/08/13 01:23:17;;;;;;;5.38;3.05;;;;;;;;;;2616052;54;20828;-59
2021/08/13 01:25:48;;;;;;;4.53;2.53;;;;;;;;;;2615822;47;20014;-59
2021/08/13 01:28:25;;;;;;;;;;;;;;;;;;2616347;54;20121;-58
2021/08/13 01:30:51;;;;;;;4.03;2.55;;;;;;;;;;2616092;54;20386;-59
2021/08/13 01:33:17;;;;;;;2.95;2.05;;;;;;;;;;2616024;54;20023;-59
2021/08/13 01:35:45;;;;;;;3.63;2.67;;;;;;;;;;2615761;54;20014;-58
2021/08/13 01:38:24;;;;;;;3.60;2.63;;;;;;;;;;2616046;54;20030;-59
2021/08/13 01:40:52;;;;;;;3.53;2.33;;;;;;;;;;2616045;54;20057;-58
2021/08/13 01:43:22;;;;;;;3.47;2.28;;;;;;;;;;2616136;54;20011;-59
2021/08/13 01:45:49;;;;;;;4.43;2.90;;;;;;;;;;2616091;54;20011;-59
2021/08/13 01:48:15;;;;;;;5.05;3.58;;;;;;;;;;2615803;54;20122;-59
2021/08/13 01:50:41;;;;;;;5.95;2.90;;;;;;;;;;2615930;54;20014;-59
2021/08/13 01:53:08;;;;;;;4.60;2.83;;;;;;;;;;2616042;54;20010;-59
2021/08/13 01:55:35;;;;;;;4.72;2.58;;;;;;;;;;2615725;54;20034;-59
2021/08/13 01:58:01;;;;;;;6.15;2.53;;;;;;;;;;2615882;54;20069;-58
2021/08/13 02:00:26;;;;;;;3.95;2.53;;;;;;;;;;2615845;54;20022;-59
2021/08/13 02:02:53;;;;;;;3.95;2.58;;;;;;;;;;2616044;54;20014;-59
2021/08/13 02:05:21;;;;;;;3.35;2.28;;;;;;;;;;2615587;54;20070;-59
2021/08/13 02:07:48;;;;;;;3.10;2.40;;;;;;;;;;2616139;39;20346;-59
2021/08/13 02:10:15;;;;;;;4.95;3.20;;;;;;;;;;2615721;54;20121;-59
2021/08/13 02:12:41;;;;;;;4.50;2.80;;;;;;;;;;2615534;54;20018;-59
2021/08/13 02:15:09;;;;;;;3.70;2.50;;;;;;;;;;2615756;54;20033;-59
2021/08/13 02:17:39;;;;;;;3.90;2.70;;;;;;;;;;2615831;47;20484;-59
2021/08/13 02:20:11;;;;;;;5.82;3.15;;;;;;;;;;2615615;54;20022;-60
2021/08/13 02:22:37;;;;;;;4.85;3.55;;;;;;;;;;2615788;54;20011;-60
2021/08/13 02:25:04;;;;;;;6.00;2.72;;;;;;;;;;2615774;54;20551;-59
2021/08/13 02:27:33;;;;;;;3.13;2.10;;;;;;;;;;2615509;54;20019;-60
2021/08/13 02:29:59;;;;;;;4.07;2.45;;;;;;;;;;2615933;54;20021;-59
2021/08/13 02:32:26;;;;;;;3.42;2.47;;;;;;;;;;2615693;54;20477;-60
2021/08/13 02:34:52;;;;;;;4.45;2.92;;;;;;;;;;2615772;54;20034;-60
2021/08/13 02:37:21;;;;;;;5.00;2.80;;;;;;;;;;2615681;54;20022;-60
2021/08/13 02:40:01;;;;;;;3.75;2.67;;;;;;;;;;2615799;54;20496;-60
2021/08/13 02:42:32;;;;;;;;;;;;;;;;;;2615677;54;20023;-60
2021/08/13 02:45:00;;;;;;;4.07;2.78;;;;;;;;;;2615323;54;20361;-60
2021/08/13 02:47:29;;;;;;;2.97;2.42;;;;;;;;;;2615693;54;20751;-60
2021/08/13 02:50:24;;;;;;;3.85;3.03;;;;;;;;;;2615828;54;20106;-60
2021/08/13 02:53:05;;;;;;;4.43;3.13;;;;;;;;;;2615309;54;20825;-60
2021/08/13 02:55:39;;;;;;;3.05;2.20;;;;;;;;;;2615623;54;20469;-59
2021/08/13 02:58:08;;;;;;;4.18;2.88;;;;;;;;;;2615710;54;20019;-60
2021/08/13 03:00:38;;;;;;;3.53;2.55;;;;;;;;;;2615512;54;20166;-60
2021/08/13 03:03:05;;;;;;;5.03;3.05;;;;;;;;;;2615488;54;20750;-60
2021/08/13 03:05:32;;;;;;;3.72;2.35;;;;;;;;;;2615498;54;20049;-60
2021/08/13 03:07:57;;;;;;;3.72;2.20;;;;;;;;;;2615505;54;20509;-60
2021/08/13 03:10:23;;;;;;;8.57;3.03;;;;;;;;;;2615515;54;20078;-60
2021/08/13 03:12:49;;;;;;;5.45;2.53;;;;;;;;;;2615738;54;20014;-60
2021/08/13 03:15:17;;;;;;;4.20;2.80;;;;;;;;;;2615525;54;20015;-60
2021/08/13 03:17:44;;;;;;;4.25;2.63;;;;;;;;;;2615711;39;20357;-60
2021/08/13 03:20:10;;;;;;;2.58;1.90;;;;;;;;;;2615720;54;20018;-60
2021/08/13 03:22:36;;;;;;;6.00;3.95;;;;;;;;;;2616405;54;20045;-60
2021/08/13 03:25:04;;;;;;;4.03;2.90;;;;;;;;;;2616956;39;20535;-60
2021/08/13 03:27:29;;;;;;;5.25;3.13;;;;;;;;;;2616058;54;20034;-60
2021/08/13 03:29:55;;;;;;;2.72;2.08;;;;;;;;;;2616118;54;20018;-60
2021/08/13 03:32:20;;;;;;;4.43;2.92;;;;;;;;;;2616511;54;20049;-60
2021/08/13 03:34:47;;;;;;;4.63;2.95;;;;;;;;;;2616206;54;20049;-60
2021/08/13 03:37:12;;;;;;;4.47;2.95;;;;;;;;;;2616372;54;20014;-60
2021/08/13 03:39:40;;;;;;;3.92;2.83;;;;;;;;;;2616630;39;20523;-60
2021/08/13 03:42:05;;;;;;;4.22;2.90;;;;;;;;;;2616417;54;20018;-60
2021/08/13 03:44:31;;;;;;;5.20;3.67;;;;;;;;;;2616131;54;20033;-60
2021/08/13 03:46:56;;;;;;;4.35;2.65;;;;;;;;;;2616108;54;20018;-60
2021/08/13 03:49:22;;;;;;;4.75;3.10;;;;;;;;;;2616481;54;20018;-60
2021/08/13 03:51:48;;;;;;;4.43;3.10;;;;;;;;;;2616557;54;20018;-58
2021/08/13 03:54:13;;;;;;;5.13;2.30;;;;;;;;;;2616317;54;20118;-60
2021/08/13 03:56:39;;;;;;;5.13;3.40;;;;;;;;;;2616249;54;20480;-60
2021/08/13 03:59:05;;;;;;;5.35;3.08;;;;;;;;;;2615664;54;20025;-60
2021/08/13 04:01:30;;;;;;;3.38;2.00;;;;;;;;;;2616828;31;20470;-60
2021/08/13 04:03:57;;;;;;;5.47;2.92;;;;;;;;;;2616276;54;20011;-60
2021/08/13 04:06:23;;;;;;;3.33;2.40;;;;;;;;;;2616142;54;20022;-59
2021/08/13 04:08:48;;;;;;;3.88;2.60;;;;;;;;;;2616360;54;20066;-59
2021/08/13 04:11:14;;;;;;;3.03;2.22;;;;;;;;;;2616108;54;20030;-59
2021/08/13 04:13:39;;;;;;;3.58;2.58;;;;;;;;;;2616376;54;20042;-59
2021/08/13 04:16:05;;;;;;;3.58;2.63;;;;;;;;;;2616441;39;20369;-60
2021/08/13 04:18:30;;;;;;;4.10;2.50;;;;;;;;;;2615998;54;20113;-59
2021/08/13 04:20:55;;;;;;;3.13;2.05;;;;;;;;;;2614776;54;20118;-59
2021/08/13 04:23:21;;;;;;;5.30;3.70;;;;;;;;;;2615730;54;20174;-59
2021/08/13 04:25:46;;;;;;;5.00;3.33;;;;;;;;;;2616321;54;20011;-59
2021/08/13 04:28:11;;;;;;;3.47;2.70;;;;;;;;;;2615977;54;20523;-59
2021/08/13 04:30:37;;;;;;;4.95;2.83;;;;;;;;;;2616029;54;20019;-59
2021/08/13 04:33:10;;;;;;;4.25;3.05;;;;;;;;;;2616211;54;20102;-59
2021/08/13 04:35:36;;;;;;;3.65;2.67;;;;;;;;;;2615954;54;20015;-59
2021/08/13 04:38:02;;;;;;;5.18;3.22;;;;;;;;;;2617044;31;20248;-59
2021/08/13 04:40:28;;;;;;;5.85;3.47;;;;;;;;;;2615892;54;20022;-59
2021/08/13 04:42:53;;;;;;;4.55;2.80;;;;;;;;;;2616386;54;20019;-59
2021/08/13 04:45:18;;;;;;;3.22;2.30;;;;;;;;;;2616441;54;20011;-59
2021/08/13 04:47:44;;;;;;;4.25;2.80;;;;;;;;;;2616068;54;20021;-59
2021/08/13 04:50:09;;;;;;;3.88;2.92;;;;;;;;;;2616197;54;20046;-59
2021/08/13 04:52:42;;;;;;;3.75;2.53;;;;;;;;;;2615678;54;20019;-59
2021/08/13 04:55:08;;;;;;;4.43;3.28;;;;;;;;;;2616312;54;20570;-59
2021/08/13 04:57:34;;;;;;;5.45;2.78;;;;;;;;;;2616019;54;20018;-59
2021/08/13 04:59:59;;;;;;;6.38;2.88;;;;;;;;;;2613989;54;20065;-59
2021/08/13 05:02:25;;;;;;;4.80;3.08;;;;;;;;;;2615047;47;20027;-59
2021/08/13 05:04:58;;;;;;;4.50;2.83;;;;;;;;;;2616057;39;20334;-59
2021/08/13 05:07:24;;;;;;;4.20;3.17;;;;;;;;;;2615682;54;20014;-59
2021/08/13 05:09:49;;;;;;;7.80;3.00;;;;;;;;;;2615798;54;20062;-58
2021/08/13 05:12:14;;;;;;;4.63;2.90;;;;;;;;;;2616055;39;20377;-58
2021/08/13 05:14:40;;;;;;;4.85;3.15;;;;;;;;;;2615051;54;20968;-59
2021/08/13 05:17:05;;;;;;;5.75;2.80;;;;;;;;;;2614910;54;20041;-59
2021/08/13 05:19:31;;;;;;;7.10;2.80;;;;;;;;;;2615893;54;20014;-59
2021/08/13 05:21:56;;;;;;;4.47;2.90;;;;;;;;;;2616096;54;20481;-59
2021/08/13 05:24:22;;;;;;;5.40;3.72;;;;;;;;;;2615901;54;20010;-59
2021/08/13 05:26:47;;;;;;;3.58;2.85;;;;;;;;;;2615832;54;20724;-59
2021/08/13 05:29:12;;;;;;;7.90;3.67;;;;;;;;;;2615574;54;20030;-59
2021/08/13 05:31:38;;;;;;;4.50;3.13;;;;;;;;;;2616005;54;20015;-59
2021/08/13 05:34:03;;;;;;;3.05;2.33;;;;;;;;;;2615904;54;20520;-59
2021/08/13 05:36:28;;;;;;;3.75;2.92;;;;;;;;;;2615418;54;20042;-59
2021/08/13 05:38:54;;;;;;;3.97;3.13;;;;;;;;;;2615969;54;20468;-59
2021/08/13 05:41:19;;;;;;;6.68;3.25;;;;;;;;;;2615093;47;20018;-59
2021/08/13 05:43:45;;;;;;;4.95;3.05;;;;;;;;;;2615382;54;20022;-59
2021/08/13 05:46:11;;;;;;;4.82;3.30;;;;;;;;;;2615572;54;20026;-59
2021/08/13 05:48:37;;;;;;;4.38;3.17;;;;;;;;;;2615730;54;20017;-59
2021/08/13 05:51:02;;;;;;;4.35;3.28;;;;;;;;;;2615985;54;20480;-59
2021/08/13 05:53:27;;;;;;;4.38;3.03;;;;;;;;;;2615731;54;20038;-59
2021/08/13 05:55:53;;;;;;;5.40;4.05;;;;;;;;;;2615730;54;20106;-59
2021/08/13 05:58:18;;;;;;;6.82;3.22;;;;;;;;;;2615260;54;20117;-59
2021/08/13 06:00:44;;;;;;;3.97;2.95;;;;;;;;;;2615750;54;20035;-59
2021/08/13 06:03:09;;;;;;;5.10;3.45;;;;;;;;;;2616341;39;20407;-59
2021/08/13 06:05:34;;;;;;;5.15;3.17;;;;;;;;;;2615390;54;20033;-59
2021/08/13 06:08:00;;;;;;;4.30;3.22;;;;;;;;;;2615728;54;20023;-59
2021/08/13 06:10:25;;;;;;;4.57;3.13;;;;;;;;;;2616157;39;20582;-60
2021/08/13 06:12:51;;;;;;;4.38;3.13;;;;;;;;;;2616026;39;20749;-60
2021/08/13 06:15:18;;;;;;;5.60;4.28;;;;;;;;;;2615968;54;20017;-59
2021/08/13 06:17:44;;;;;;;3.90;3.28;;;;;;;;;;2615502;54;20106;-60
2021/08/13 06:20:12;;;;;;;10.55;3.33;;;;;;;;;;2615925;47;20011;-60
2021/08/13 06:22:37;;;;;;;5.78;4.13;;;;;;;;;;2615405;54;20126;-60
2021/08/13 06:25:03;;;;;;;5.90;4.00;;;;;;;;;;2615713;54;20500;-60
2021/08/13 06:27:29;;;;;;;4.78;3.30;;;;;;;;;;2615660;54;20014;-60
2021/08/13 06:29:54;;;;;;;5.20;4.32;;;;;;;;;;2615751;54;20003;-60
2021/08/13 06:32:20;;;;;;;5.03;3.63;;;;;;;;;;2615568;54;20046;-60
2021/08/13 06:34:46;;;;;;;4.53;3.67;;;;;;;;;;2615977;54;20014;-60
2021/08/13 06:37:11;;;;;;;3.38;2.67;;;;;;;;;;2615780;54;20773;-60
2021/08/13 06:39:37;;;;;;;5.47;4.50;;;;;;;;;;2615594;54;20015;-60
2021/08/13 06:42:03;;;;;;;6.38;3.15;;;;;;;;;;2615784;54;20014;-60
2021/08/13 06:44:29;;;;;;;4.18;3.40;;;;;;;;;;2615754;54;20054;-60
2021/08/13 06:46:54;;;;;;;3.65;2.97;;;;;;;;;;2615803;54;20010;-59
2021/08/13 06:49:19;;;;;;;5.32;3.42;;;;;;;;;;2615512;54;20130;-60
2021/08/13 06:51:45;;;;;;;5.95;4.22;;;;;;;;;;2615857;54;20022;-60
2021/08/13 06:54:10;;;;;;;6.72;4.55;;;;;;;;;;2615584;54;20015;-60
2021/08/13 06:56:35;;;;;;;5.25;3.83;;;;;;;;;;2616537;54;20039;-60
2021/08/13 06:59:01;;;;;;;5.45;4.47;;;;;;;;;;2616218;54;20022;-60
2021/08/13 07:01:26;;;;;;;5.18;3.10;;;;;;;;;;2616404;47;20054;-60
2021/08/13 07:03:52;;;;;;;5.57;4.40;;;;;;;;;;2616651;54;20537;-60
2021/08/13 07:06:17;;;;;;;5.18;3.35;;;;;;;;;;2616888;39;20329;-60
2021/08/13 07:08:42;;;;;;;4.68;3.45;;;;;;;;;;2616483;47;20496;-60
2021/08/13 07:11:08;;;;;;;6.57;3.67;;;;;;;;;;2616788;54;20492;-60
2021/08/13 07:13:33;;;;;;;4.53;3.38;;;;;;;;;;2616516;54;20105;-60
2021/08/13 07:15:58;;;;;;;5.07;3.95;;;;;;;;;;2617320;31;20429;-60
2021/08/13 07:18:24;;;;;;;3.67;2.47;;;;;;;;;;2616204;54;20109;-60
2021/08/13 07:20:49;;;;;;;4.63;3.72;;;;;;;;;;2616669;54;20022;-60
2021/08/13 07:23:15;;;;;;;4.15;2.88;;;;;;;;;;2616638;54;20022;-60
2021/08/13 07:25:40;;;;;;;6.25;3.47;;;;;;;;;;2616072;54;20030;-60
2021/08/13 07:28:06;;;;;;;4.68;3.63;;;;;;;;;;2616428;54;20036;-60
2021/08/13 07:30:31;;;;;;;3.90;3.00;;;;;;;;;;2616349;54;20011;-60
2021/08/13 07:32:56;;;;;;;5.35;3.58;;;;;;;;;;2616964;39;20361;-60
2021/08/13 07:35:22;;;;;;;6.03;4.00;;;;;;;;;;2616290;54;20023;-60
2021/08/13 07:37:47;;;;;;;9.80;3.95;;;;;;;;;;2616327;54;20501;-60
2021/08/13 07:40:13;;;;;;;5.00;4.20;;;;;;;;;;2616578;54;20484;-60
2021/08/13 07:42:41;;;;;;;4.72;3.50;;;;;;;;;;2616344;54;20122;-60
2021/08/13 07:45:07;;;;;;;5.57;4.28;;;;;;;;;;2616728;39;20550;-60
2021/08/13 07:47:33;;;;;;;4.18;3.30;;;;;;;;;;2616416;54;20106;-60
2021/08/13 07:49:59;;;;;;;4.53;3.58;;;;;;;;;;2616493;54;20011;-61
2021/08/13 07:52:24;;;;;;;4.50;3.63;;;;;;;;;;2616322;54;20667;-60
2021/08/13 07:54:49;;;;;;;4.35;3.80;;;;;;;;;;2616380;54;20042;-60
2021/08/13 07:57:16;;;;;;;5.38;3.50;;;;;;;;;;2616990;39;20368;-60
2021/08/13 07:59:42;;;;;;;5.43;3.90;;;;;;;;;;2616456;54;20054;-60
2021/08/13 08:02:07;;;;;;;9.35;4.05;;;;;;;;;;2615812;54;20015;-60
2021/08/13 08:04:33;;;;;;;4.85;3.80;;;;;;;;;;2616544;39;20294;-60
2021/08/13 08:06:58;;;;;;;11.30;4.72;;;;;;;;;;2616161;54;20025;-60
2021/08/13 08:09:24;;;;;;;5.40;3.95;;;;;;;;;;2616119;54;20049;-60
2021/08/13 08:11:51;;;;;;;3.95;3.30;;;;;;;;;;2616300;54;20065;-60
2021/08/13 08:14:16;;;;;;;4.88;3.63;;;;;;;;;;2616322;54;20115;-60
2021/08/13 08:16:42;;;;;;;4.65;3.40;;;;;;;;;;2616346;54;20011;-60
2021/08/13 08:19:07;;;;;;;5.65;4.07;;;;;;;;;;2616059;54;20465;-60
2021/08/13 08:21:33;;;;;;;5.22;4.35;;;;;;;;;;2615937;54;20022;-60
2021/08/13 08:23:58;;;;;;;4.28;3.53;;;;;;;;;;2616649;47;20049;-60
2021/08/13 08:26:24;;;;;;;4.15;3.45;;;;;;;;;;2616243;54;20018;-60
2021/08/13 08:28:49;;;;;;;4.25;3.75;;;;;;;;;;2616154;54;20067;-60
2021/08/13 08:31:15;;;;;;;4.97;4.18;;;;;;;;;;2616370;54;20014;-60
2021/08/13 08:33:40;;;;;;;6.20;3.70;;;;;;;;;;2616115;54;20038;-60
2021/08/13 08:36:06;;;;;;;4.10;3.53;;;;;;;;;;2616442;54;20015;-60
2021/08/13 08:38:32;;;;;;;8.35;4.47;;;;;;;;;;2615611;54;20030;-60
2021/08/13 08:41:02;;;;;;;4.55;3.60;;;;;;;;;;2616320;54;20489;-60
2021/08/13 08:43:28;;;;;;;;;;;;;;;;;;2616287;54;20501;-60
2021/08/13 08:45:55;;;;;;;4.55;3.58;;;;;;;;;;2615429;54;19967;-60
2021/08/13 08:48:21;;;;;;;4.03;3.40;;;;;;;;;;2616176;54;20011;-60
2021/08/13 08:50:47;;;;;;;5.95;3.78;;;;;;;;;;2616168;54;20476;-60
2021/08/13 08:53:21;;;;;;;7.07;4.78;;;;;;;;;;2616063;54;20030;-60
2021/08/13 08:55:47;;;;;;;5.47;4.55;;;;;;;;;;2616309;54;20500;-60
2021/08/13 08:58:13;;;;;;;4.90;4.40;;;;;;;;;;2616518;39;20544;-60
2021/08/13 09:00:39;;;;;;;9.52;5.53;;;;;;;;;;2616225;54;20038;-60
2021/08/13 09:03:05;;;;;;;4.85;3.97;;;;;;;;;;2616111;54;20049;-60
2021/08/13 09:05:30;;;;;;;7.65;4.53;;;;;;;;;;2616258;54;20018;-60
2021/08/13 09:07:55;;;;;;;5.65;5.05;;;;;;;;;;2616144;54;20045;-60
2021/08/13 09:10:21;;;;;;;5.93;5.35;;;;;;;;;;2615971;54;20026;-60
2021/08/13 09:12:51;;;;;;;6.00;4.57;;;;;;;;;;2616033;54;20023;-60
2021/08/13 09:15:49;;;;;;;5.60;4.93;;;;;;;;;;2616120;54;20019;-60
2021/08/13 09:18:21;;;;;;;4.38;3.85;;;;;;;;;;2614748;54;20023;-60
2021/08/13 09:20:55;;;;;;;4.75;4.10;;;;;;;;;;2616002;54;20053;-60
2021/08/13 09:23:31;;;;;;;5.00;4.40;;;;;;;;;;2616115;47;20015;-60
2021/08/13 09:26:00;;;;;;;5.05;4.18;;;;;;;;;;2616291;47;20011;-60
2021/08/13 09:28:41;;;;;;;5.78;4.43;;;;;;;;;;2615650;54;20018;-60
2021/08/13 09:31:10;;;;;;;7.18;4.68;;;;;;;;;;2615765;54;20027;-60
2021/08/13 09:33:36;;;;;;;5.10;4.35;;;;;;;;;;2616064;39;20361;-60
2021/08/13 09:36:02;;;;;;;5.00;3.97;;;;;;;;;;2615881;54;20030;-60
2021/08/13 09:38:28;;;;;;;5.28;4.38;;;;;;;;;;2615676;54;20014;-60
2021/08/13 09:41:05;;;;;;;6.80;4.60;;;;;;;;;;2615824;54;20753;-60
2021/08/13 09:43:31;;;;;;;4.97;4.43;;;;;;;;;;2615822;54;20014;-60
2021/08/13 09:46:06;;;;;;;4.95;4.18;;;;;;;;;;2616172;39;20641;-60
2021/08/13 09:48:32;;;;;;;5.00;4.53;;;;;;;;;;2615397;54;20034;-60
2021/08/13 09:50:58;;;;;;;7.45;4.22;;;;;;;;;;2615614;54;20022;-61
2021/08/13 09:53:23;;;;;;;7.18;4.32;;;;;;;;;;2614709;54;20030;-60
2021/08/13 09:55:49;;;;;;;4.22;3.03;;;;;;;;;;2613568;54;20030;-60
2021/08/13 09:58:29;;;;;;;6.22;3.88;;;;;;;;;;2613901;54;20010;-60
2021/08/13 10:00:55;;;;;;;;;;;;;;;;;;2614089;54;20011;-60
2021/08/13 10:03:21;;;;;;;5.95;4.20;;;;;;;;;;2614163;54;19951;-60
2021/08/13 10:06:03;;;;;;;4.15;3.47;;;;;;;;;;2614663;54;20038;-60
2021/08/13 10:08:41;;;;;;;4.50;3.75;;;;;;;;;;2614572;54;20040;-60
2021/08/13 10:11:14;;;;;;;4.25;3.53;;;;;;;;;;2614489;54;20023;-60
2021/08/13 10:13:41;;;;;;;4.93;3.60;;;;;;;;;;2614622;54;20023;-60
2021/08/13 10:16:06;;;;;;;5.53;4.60;;;;;;;;;;2614802;54;20010;-60
2021/08/13 10:18:35;;;;;;;3.83;3.42;;;;;;;;;;2614246;54;20015;-60
2021/08/13 10:21:01;;;;;;;17.30;4.43;;;;;;;;;;2614084;39;20387;-60
2021/08/13 10:23:28;;;;;;;5.20;3.95;;;;;;;;;;2614302;54;20015;-60
2021/08/13 10:25:55;;;;;;;5.00;3.72;;;;;;;;;;2615234;39;20353;-60
2021/08/13 10:28:21;;;;;;;4.97;3.88;;;;;;;;;;2615083;54;20022;-60
2021/08/13 10:30:47;;;;;;;3.40;3.10;;;;;;;;;;2615901;54;20030;-60
2021/08/13 10:33:13;;;;;;;7.60;3.80;;;;;;;;;;2616057;54;20011;-61
2021/08/13 10:35:43;;;;;;;5.38;4.05;;;;;;;;;;2616468;39;20440;-60
2021/08/13 10:38:09;;;;;;;3.83;2.90;;;;;;;;;;2616545;54;20014;-60
2021/08/13 10:40:37;;;;;;;4.07;3.30;;;;;;;;;;2616462;54;20054;-61
2021/08/13 10:43:03;;;;;;;4.53;3.88;;;;;;;;;;2617322;31;20461;-60
2021/08/13 10:45:32;;;;;;;7.00;3.80;;;;;;;;;;2616418;54;20010;-59
2021/08/13 10:48:03;;;;;;;4.72;3.42;;;;;;;;;;2616486;54;20029;-59
2021/08/13 10:50:29;;;;;;;4.15;3.53;;;;;;;;;;2616590;54;20014;-60
2021/08/13 10:52:55;;;;;;;5.00;3.70;;;;;;;;;;2616403;47;20590;-60
2021/08/13 10:56:03;;;;;;;4.75;3.45;;;;;;;;;;2616399;54;20030;-60
2021/08/13 10:58:40;;;;;;;6.63;4.75;;;;;;;;;;2614482;54;20086;-59
2021/08/13 11:01:10;;;;;;;7.25;4.03;;;;;;;;;;2614789;54;20022;-59
2021/08/13 11:03:37;;;;;;;4.90;4.05;;;;;;;;;;2615475;54;20017;-59
2021/08/13 11:06:04;;;;;;;5.43;4.47;;;;;;;;;;2616415;54;20481;-60
2021/08/13 11:08:41;;;;;;;4.00;3.42;;;;;;;;;;2616132;54;20065;-60
2021/08/13 11:11:11;;;;;;;5.47;4.30;;;;;;;;;;2616925;39;20339;-60
2021/08/13 11:13:41;;;;;;;4.57;4.13;;;;;;;;;;2616284;54;20018;-60
2021/08/13 11:16:25;;;;;;;5.50;4.35;;;;;;;;;;2616460;54;20026;-60
2021/08/13 11:18:58;;;;;;;5.03;3.83;;;;;;;;;;2616098;39;20480;-60
2021/08/13 11:21:46;;;;;;;4.75;3.50;;;;;;;;;;2616439;54;20010;-60
2021/08/13 11:24:12;;;;;;;4.35;3.95;;;;;;;;;;2615984;54;20070;-59
2021/08/13 11:26:50;;;;;;;4.97;3.20;;;;;;;;;;2616452;54;20018;-59
2021/08/13 11:29:27;;;;;;;7.25;4.03;;;;;;;;;;2616234;54;20069;-59
2021/08/13 11:31:53;;;;;;;4.05;3.50;;;;;;;;;;2616605;54;20022;-59
2021/08/13 11:34:47;;;;;;;5.40;4.32;;;;;;;;;;2616421;54;20114;-59
2021/08/13 11:37:31;;;;;;;3.72;3.30;;;;;;;;;;2616249;54;20019;-59
2021/08/13 11:40:02;;;;;;;4.22;3.55;;;;;;;;;;2616473;54;20011;-60
2021/08/13 11:42:31;;;;;;;5.07;4.13;;;;;;;;;;2615910;54;20015;-59
2021/08/13 11:45:01;;;;;;;4.93;3.75;;;;;;;;;;2616340;54;20026;-60
2021/08/13 11:47:27;;;;;;;4.50;3.65;;;;;;;;;;2616293;54;20015;-59
2021/08/13 11:49:53;;;;;;;4.07;3.58;;;;;;;;;;2616450;54;20102;-59
2021/08/13 11:52:20;;;;;;;5.28;3.80;;;;;;;;;;2616351;54;20038;-60
2021/08/13 11:54:45;;;;;;;6.22;4.65;;;;;;;;;;2616026;54;20019;-59
2021/08/13 11:57:15;;;;;;;6.72;4.18;;;;;;;;;;2616660;54;20102;-59
2021/08/13 11:59:40;;;;;;;4.15;3.38;;;;;;;;;;2615986;54;20022;-59
2021/08/13 12:02:06;;;;;;;4.80;4.13;;;;;;;;;;2616314;54;20018;-59
2021/08/13 12:04:32;;;;;;;8.88;4.00;;;;;;;;;;2615620;54;20575;-59
2021/08/13 12:07:09;;;;;;;5.05;3.88;;;;;;;;;;2616340;54;20022;-59
2021/08/13 12:09:42;;;;;;;4.78;4.18;;;;;;;;;;2616043;54;20030;-59
2021/08/13 12:12:12;;;;;;;5.70;4.68;;;;;;;;;;2616438;54;20034;-59
2021/08/13 12:14:46;;;;;;;4.05;3.63;;;;;;;;;;2616845;31;20139;-59
2021/08/13 12:17:13;;;;;;;6.22;4.95;;;;;;;;;;2615626;54;20010;-59
2021/08/13 12:19:38;;;;;;;7.88;4.28;;;;;;;;;;2615855;54;20018;-59
2021/08/13 12:22:07;;;;;;;5.55;4.43;;;;;;;;;;2616409;54;20022;-59
2021/08/13 12:24:40;;;;;;;5.63;4.68;;;;;;;;;;2616027;54;20029;-59
2021/08/13 12:27:08;;;;;;;4.30;3.88;;;;;;;;;;2616073;54;20041;-59
2021/08/13 12:29:37;;;;;;;4.78;4.28;;;;;;;;;;2615901;39;20416;-59
2021/08/13 12:32:05;;;;;;;4.65;3.75;;;;;;;;;;2615288;54;20030;-59
2021/08/13 12:34:32;;;;;;;4.47;3.83;;;;;;;;;;2616457;39;20361;-59
2021/08/13 12:37:09;;;;;;;4.95;3.65;;;;;;;;;;2616298;54;20010;-59
2021/08/13 12:39:43;;;;;;;3.35;2.72;;;;;;;;;;2615881;54;20038;-59
2021/08/13 12:42:09;;;;;;;4.10;3.70;;;;;;;;;;2615114;39;20457;-60
2021/08/13 12:44:40;;;;;;;4.70;4.07;;;;;;;;;;2616038;54;20009;-59
2021/08/13 12:47:07;;;;;;;5.95;3.80;;;;;;;;;;2615169;54;20014;-59
2021/08/13 12:49:36;;;;;;;4.70;3.70;;;;;;;;;;2614448;54;20014;-59
2021/08/13 12:52:12;;;;;;;4.68;4.07;;;;;;;;;;2616273;54;20026;-59
2021/08/13 12:54:40;;;;;;;5.28;4.10;;;;;;;;;;2616060;54;20022;-59
2021/08/13 12:57:12;;;;;;;5.68;4.13;;;;;;;;;;2616164;54;20090;-60
2021/08/13 12:59:38;;;;;;;4.47;4.07;;;;;;;;;;2615804;54;20026;-60
2021/08/13 13:02:04;;;;;;;3.85;3.20;;;;;;;;;;2615890;54;20057;-59
2021/08/13 13:04:41;;;;;;;4.85;4.25;;;;;;;;;;2615775;54;20010;-59
2021/08/13 13:07:08;;;;;;;4.55;3.45;;;;;;;;;;2616194;54;20074;-59
2021/08/13 13:09:36;;;;;;;4.30;3.85;;;;;;;;;;2615599;54;20043;-59
2021/08/13 13:12:11;;;;;;;4.70;4.20;;;;;;;;;;2616258;54;20006;-59
2021/08/13 13:14:36;;;;;;;4.82;3.80;;;;;;;;;;2615834;54;20017;-59
2021/08/13 13:17:07;;;;;;;5.85;3.85;;;;;;;;;;2615822;54;20015;-59
2021/08/13 13:19:32;;;;;;;4.15;3.40;;;;;;;;;;2616451;39;20387;-59
2021/08/13 13:22:17;;;;;;;5.47;3.88;;;;;;;;;;2616004;54;20018;-59
2021/08/13 13:24:43;;;;;;;5.95;4.32;;;;;;;;;;2616288;54;20011;-59
2021/08/13 13:27:08;;;;;;;4.40;3.63;;;;;;;;;;2615825;54;20062;-59
2021/08/13 13:29:42;;;;;;;4.35;3.47;;;;;;;;;;2616020;54;20114;-60
2021/08/13 13:32:20;;;;;;;4.18;3.60;;;;;;;;;;2615947;54;20465;-60
2021/08/13 13:35:01;;;;;;;4.15;3.47;;;;;;;;;;2615774;54;20030;-60
2021/08/13 13:37:27;;;;;;;3.97;2.97;;;;;;;;;;2615995;54;20050;-60
2021/08/13 13:39:53;;;;;;;4.15;3.58;;;;;;;;;;2615988;54;20563;-60
2021/08/13 13:42:26;;;;;;;4.45;3.97;;;;;;;;;;2616464;39;20342;-60
2021/08/13 13:45:02;;;;;;;4.30;3.40;;;;;;;;;;2615761;54;20046;-60
2021/08/13 13:47:28;;;;;;;3.40;2.90;;;;;;;;;;2616101;54;20026;-60
2021/08/13 13:49:53;;;;;;;8.82;4.35;;;;;;;;;;2616118;39;20697;-64
2021/08/13 13:52:19;;;;;;;8.85;3.65;;;;;;;;;;2615775;54;20062;-65
2021/08/13 13:54:44;;;;;;;9.10;3.20;;;;;;;;;;2616143;39;20586;-65
2021/08/13 13:57:09;;;;;;;9.32;4.10;;;;;;;;;;2615989;54;20114;-64
2021/08/13 13:59:35;;;;;;;5.97;5.38;;;;;;;;;;2615837;54;20023;-63
2021/08/13 14:02:00;;;;;;;6.00;4.70;;;;;;;;;;2616320;54;20018;-63
2021/08/13 14:04:26;;;;;;;8.90;6.65;;;;;;;;;;2615330;54;20019;-62
2021/08/13 14:06:51;;;;;;;7.50;6.80;;;;;;;;;;2615155;54;20031;-62
2021/08/13 14:09:16;;;;;;;6.88;5.93;;;;;;;;;;2615994;39;20409;-62
2021/08/13 14:11:42;;;;;;;5.90;5.40;;;;;;;;;;2615586;54;20017;-62
2021/08/13 14:14:07;;;;;;;7.82;7.03;;;;;;;;;;2615728;54;20042;-61
2021/08/13 14:16:33;;;;;;;5.93;5.28;;;;;;;;;;2615769;54;20019;-62
2021/08/13 14:18:58;;;;;;;5.80;5.30;;;;;;;;;;2615634;54;20054;-61
2021/08/13 14:21:23;;;;;;;6.63;5.82;;;;;;;;;;2615476;54;20038;-62
2021/08/13 14:23:49;;;;;;;6.13;5.28;;;;;;;;;;2615636;54;20086;-61
2021/08/13 14:26:14;;;;;;;7.18;5.15;;;;;;;;;;2615976;54;20023;-61
2021/08/13 14:28:40;;;;;;;6.72;6.13;;;;;;;;;;2615614;54;20101;-61
2021/08/13 14:31:06;;;;;;;5.93;5.43;;;;;;;;;;2615073;54;20038;-66
2021/08/13 14:33:32;;;;;;;5.05;4.45;;;;;;;;;;2615061;54;20045;-66
2021/08/13 14:35:57;;;;;;;8.93;5.53;;;;;;;;;;2614970;54;20121;-67
2021/08/13 14:38:22;;;;;;;6.28;5.68;;;;;;;;;;2615734;54;20027;-66
2021/08/13 14:40:48;;;;;;;5.80;5.30;;;;;;;;;;2615710;54;20073;-68
2021/08/13 14:43:13;;;;;;;5.93;5.40;;;;;;;;;;2615582;54;20011;-68
2021/08/13 14:45:39;;;;;;;6.13;5.57;;;;;;;;;;2615437;54;20026;-68
2021/08/13 14:48:04;;;;;;;6.70;6.13;;;;;;;;;;2616475;31;20457;-68